createdAt,value
2022-11-16T00:00:21.887Z,3.03
2022-11-16T00:05:28.343Z,2.53
2022-11-16T00:10:32.234Z,1.80
2022-11-16T00:15:38.168Z,2.57
2022-11-16T00:20:42.329Z,2.90
2022-11-16T00:25:46.728Z,1.73
2022-11-16T00:30:59.553Z,2.20
2022-11-16T00:36:03.841Z,1.90
2022-11-16T00:41:07.809Z,1.67
2022-11-16T00:46:12.758Z,2.30
2022-11-16T00:51:16.281Z,2.80
2022-11-16T00:56:19.899Z,2.30
2022-11-16T01:01:25.093Z,3.17
2022-11-16T01:06:28.827Z,2.27
2022-11-16T01:11:49.712Z,2.80
2022-11-16T01:16:54.660Z,2.00
2022-11-16T01:21:58.906Z,1.87
2022-11-16T01:27:02.465Z,1.80
2022-11-16T01:32:09.952Z,1.90
2022-11-16T01:37:13.768Z,1.77
2022-11-16T01:42:19.872Z,1.83
2022-11-16T01:47:26.294Z,1.60
2022-11-16T01:52:34.874Z,1.53
2022-11-16T01:57:42.165Z,1.20
2022-11-16T02:02:47.591Z,1.30
2022-11-16T02:08:38.598Z,1.23
2022-11-16T02:13:55.992Z,1.37
2022-11-16T02:19:15.735Z,1.10
2022-11-16T02:24:49.474Z,1.40
2022-11-16T02:29:56.118Z,1.83
2022-11-16T02:35:05.912Z,1.70
2022-11-16T02:40:12.903Z,1.67
2022-11-16T02:45:23.019Z,1.70
2022-11-16T02:50:28.893Z,1.73
2022-11-16T02:55:35.325Z,1.50
2022-11-16T03:00:45.314Z,1.70
2022-11-16T03:05:54.008Z,2.37
2022-11-16T03:11:21.075Z,2.20
2022-11-16T03:16:31.403Z,2.53
2022-11-16T03:21:41.005Z,2.27
2022-11-16T03:27:01.992Z,2.47
2022-11-16T03:32:16.526Z,2.83
2022-11-16T03:37:21.475Z,2.80
2022-11-16T03:42:27.882Z,2.20
2022-11-16T03:47:33.530Z,3.87
2022-11-16T03:52:37.666Z,5.03
2022-11-16T03:57:41.472Z,5.67
2022-11-16T04:02:46.652Z,5.90
2022-11-16T04:08:21.383Z,5.67
2022-11-16T04:13:46.575Z,5.97
2022-11-16T04:19:09.093Z,5.23
2022-11-16T04:24:16.146Z,7.30
2022-11-16T04:29:20.313Z,5.43
2022-11-16T04:34:43.351Z,5.03
2022-11-16T04:39:47.182Z,5.17
2022-11-16T04:45:08.212Z,5.20
2022-11-16T04:50:24.501Z,5.73
2022-11-16T04:55:28.382Z,5.70
2022-11-16T05:00:32.534Z,5.87
2022-11-16T05:05:38.804Z,5.17
2022-11-16T05:10:42.974Z,6.13
2022-11-16T05:15:47.803Z,7.13
2022-11-16T05:21:02.731Z,6.50
2022-11-16T05:26:12.904Z,6.87
2022-11-16T05:31:16.780Z,6.93
2022-11-16T05:36:22.655Z,7.10
2022-11-16T05:41:27.168Z,7.30
2022-11-16T05:46:31.032Z,8.97
2022-11-16T05:51:39.775Z,9.47
2022-11-16T05:56:44.528Z,8.17
2022-11-16T06:01:48.851Z,7.60
2022-11-16T06:06:54.586Z,7.53
2022-11-16T06:12:02.614Z,7.90
2022-11-16T06:17:07.258Z,8.13
2022-11-16T06:22:12.635Z,8.37
2022-11-16T06:27:16.738Z,9.07
2022-11-16T06:32:21.653Z,10.23
2022-11-16T06:37:26.813Z,10.57
2022-11-16T06:42:30.532Z,8.03
2022-11-16T06:47:36.098Z,8.70
2022-11-16T06:52:41.773Z,9.10
2022-11-16T06:57:46.305Z,9.90
2022-11-16T07:02:50.470Z,8.90
2022-11-16T07:07:58.821Z,7.90
2022-11-16T07:13:04.292Z,9.03
2022-11-16T07:18:09.468Z,7.77
2022-11-16T07:23:17.500Z,7.50
2022-11-16T07:28:22.661Z,7.90
2022-11-16T07:33:26.652Z,7.63
2022-11-16T07:38:48.293Z,7.60
2022-11-16T07:43:53.356Z,7.60
2022-11-16T07:49:04.027Z,8.30
2022-11-16T07:54:24.360Z,7.80
2022-11-16T07:59:28.655Z,7.47
2022-11-16T08:04:32.691Z,9.50
2022-11-16T08:09:39.578Z,9.40
2022-11-16T08:14:47.394Z,8.93
2022-11-16T08:19:51.811Z,9.73
2022-11-16T08:24:56.944Z,9.40
2022-11-16T08:30:03.235Z,9.83
2022-11-16T08:35:07.418Z,10.17
2022-11-16T08:40:15.781Z,9.90
2022-11-16T08:45:20.508Z,9.73
2022-11-16T08:50:24.235Z,9.80
2022-11-16T08:55:29.533Z,9.17
2022-11-16T09:00:34.280Z,8.37
2022-11-16T09:05:39.885Z,9.77
2022-11-16T09:10:44.889Z,7.30
2022-11-16T09:15:48.356Z,6.10
2022-11-16T09:20:52.296Z,2.27
2022-11-16T09:25:57.423Z,0.60
2022-11-16T09:31:04.089Z,0.70
2022-11-16T09:36:09.680Z,0.50
2022-11-16T09:41:34.752Z,3.40
2022-11-16T09:46:42.655Z,0.60
2022-11-16T09:51:50.636Z,0.20
2022-11-16T09:57:00.895Z,0.30
2022-11-16T10:02:17.703Z,0.40
2022-11-16T10:07:26.045Z,0.40
2022-11-16T10:12:40.258Z,0.40
2022-11-16T10:17:55.296Z,0.40
2022-11-16T10:23:07.476Z,0.50
2022-11-16T10:28:31.331Z,0.80
2022-11-16T10:33:38.223Z,0.53
2022-11-16T10:38:43.415Z,0.50
2022-11-16T10:43:49.841Z,1.20
2022-11-16T10:49:02.535Z,0.60
2022-11-16T10:54:13.708Z,0.60
2022-11-16T10:59:20.857Z,0.60
2022-11-16T11:04:26.588Z,0.60
2022-11-16T11:09:32.559Z,0.70
2022-11-16T11:14:42.263Z,0.60
2022-11-16T11:19:45.674Z,0.80
2022-11-16T11:24:50.520Z,0.83
2022-11-16T11:29:58.978Z,0.87
2022-11-16T11:35:04.283Z,0.70
2022-11-16T11:40:23.395Z,0.90
2022-11-16T11:45:39.545Z,0.63
2022-11-16T11:50:47.812Z,1.10
2022-11-16T11:55:56.406Z,1.17
2022-11-16T12:01:33.887Z,1.80
2022-11-16T12:06:44.524Z,1.10
2022-11-16T12:12:02.888Z,2.50
2022-11-16T12:17:19.982Z,1.23
2022-11-16T12:22:43.463Z,1.03
2022-11-16T12:27:54.986Z,1.00
2022-11-16T12:33:18.520Z,0.90
2022-11-16T12:38:36.202Z,1.40
2022-11-16T12:43:50.896Z,1.27
2022-11-16T12:49:19.967Z,1.07
2022-11-16T12:55:24.379Z,1.10
2022-11-16T13:00:17.029Z,1.30
2022-11-16T13:05:33.341Z,1.50
2022-11-16T13:10:42.864Z,1.47
2022-11-16T13:15:47.968Z,1.70
2022-11-16T13:21:00.024Z,1.03
2022-11-16T13:26:10.598Z,0.87
2022-11-16T13:31:20.403Z,1.20
2022-11-16T13:36:46.395Z,0.90
2022-11-16T13:41:51.550Z,1.20
2022-11-16T13:46:59.791Z,1.80
2022-11-16T13:52:22.489Z,1.23
2022-11-16T13:57:30.549Z,1.20
2022-11-16T14:02:37.250Z,1.70
2022-11-16T14:07:44.976Z,1.50
2022-11-16T14:12:53.322Z,1.60
2022-11-16T14:18:01.327Z,1.50
2022-11-16T14:23:17.282Z,1.47
2022-11-16T14:28:42.309Z,1.03
2022-11-16T14:33:52.474Z,1.20
2022-11-16T14:39:14.465Z,1.27
2022-11-16T14:44:21.785Z,1.60
2022-11-16T14:49:26.272Z,2.90
2022-11-16T14:54:36.558Z,1.23
2022-11-16T14:59:40.249Z,1.50
2022-11-16T15:04:44.431Z,2.40
2022-11-16T15:09:51.889Z,1.40
2022-11-16T15:14:59.110Z,1.53
2022-11-16T15:20:06.117Z,6.90
2022-11-16T15:25:26.182Z,1.63
2022-11-16T15:30:33.181Z,1.47
2022-11-16T15:35:38.820Z,1.90
2022-11-16T15:40:48.198Z,1.80
2022-11-16T15:45:52.476Z,1.83
2022-11-16T15:51:03.040Z,1.80
2022-11-16T15:56:14.034Z,2.20
2022-11-16T16:01:18.676Z,2.20
2022-11-16T16:06:47.556Z,3.13
2022-11-16T16:11:53.413Z,2.10
2022-11-16T16:16:59.758Z,3.50
2022-11-16T16:22:04.340Z,2.37
2022-11-16T16:27:18.340Z,1.80
2022-11-16T16:32:27.526Z,5.97
2022-11-16T16:37:32.599Z,1.87
2022-11-16T16:42:37.800Z,5.37
2022-11-16T16:47:41.530Z,5.90
2022-11-16T16:52:45.767Z,7.23
2022-11-16T16:57:51.058Z,13.10
2022-11-16T17:02:54.874Z,1.80
2022-11-16T17:07:58.806Z,1.97
2022-11-16T17:13:04.145Z,2.60
2022-11-16T17:18:08.010Z,3.00
2022-11-16T17:23:12.166Z,3.00
2022-11-16T17:28:17.387Z,2.53
2022-11-16T17:33:21.046Z,3.00
2022-11-16T17:38:25.106Z,1.77
2022-11-16T17:43:30.275Z,2.60
2022-11-16T17:48:35.039Z,3.10
2022-11-16T17:53:40.041Z,3.70
2022-11-16T17:58:45.449Z,6.57
2022-11-16T18:03:49.239Z,4.10
2022-11-16T18:08:54.233Z,6.27
2022-11-16T18:14:01.017Z,8.23
2022-11-16T18:19:07.506Z,8.27
2022-11-16T18:24:12.292Z,9.67
2022-11-16T18:29:19.272Z,6.17
2022-11-16T18:34:23.053Z,4.97
2022-11-16T18:39:26.666Z,3.90
2022-11-16T18:44:31.845Z,3.63
2022-11-16T18:49:35.843Z,3.83
2022-11-16T18:54:39.675Z,4.17
2022-11-16T18:59:44.798Z,4.07
2022-11-16T19:04:48.572Z,5.10
2022-11-16T19:09:52.118Z,5.33
2022-11-16T19:14:57.617Z,3.37
2022-11-16T19:20:01.621Z,5.90
2022-11-16T19:25:06.665Z,7.70
2022-11-16T19:30:12.302Z,4.57
2022-11-16T19:35:16.435Z,8.83
2022-11-16T19:40:24.856Z,5.57
2022-11-16T19:45:30.741Z,3.77
2022-11-16T19:50:36.502Z,4.70
2022-11-16T19:55:41.595Z,5.47
2022-11-16T20:00:47.031Z,6.13
2022-11-16T20:05:50.723Z,4.47
2022-11-16T20:10:54.410Z,4.03
2022-11-16T20:16:02.247Z,5.73
2022-11-16T20:21:07.852Z,5.20
2022-11-16T20:26:12.856Z,4.67
2022-11-16T20:31:20.005Z,7.40
2022-11-16T20:36:25.790Z,4.30
2022-11-16T20:41:31.204Z,4.10
2022-11-16T20:46:38.502Z,5.80
2022-11-16T20:51:42.249Z,6.83
2022-11-16T20:56:48.124Z,5.60
2022-11-16T21:01:56.509Z,5.73
2022-11-16T21:07:00.910Z,6.40
2022-11-16T21:12:22.458Z,7.03
2022-11-16T21:17:28.348Z,7.90
2022-11-16T21:22:32.879Z,7.63
2022-11-16T21:27:37.181Z,7.80
2022-11-16T21:32:42.527Z,9.70
2022-11-16T21:37:46.420Z,11.23
2022-11-16T21:42:52.007Z,10.13
2022-11-16T21:47:57.628Z,10.40
2022-11-16T21:53:01.989Z,11.20
2022-11-16T21:58:05.687Z,10.70
2022-11-16T22:03:11.444Z,10.17
2022-11-16T22:08:15.089Z,13.37
2022-11-16T22:13:19.369Z,13.80
2022-11-16T22:18:24.457Z,13.43
2022-11-16T22:23:28.548Z,12.10
2022-11-16T22:28:32.377Z,9.60
2022-11-16T22:33:37.746Z,8.07
2022-11-16T22:38:41.681Z,7.83
2022-11-16T22:43:45.345Z,9.33
2022-11-16T22:48:50.305Z,9.30
2022-11-16T22:53:55.117Z,10.10
2022-11-16T22:58:59.479Z,9.30
2022-11-16T23:04:05.040Z,9.67
2022-11-16T23:09:08.646Z,9.07
2022-11-16T23:14:34.979Z,9.37
2022-11-16T23:19:57.863Z,8.20
2022-11-16T23:25:19.606Z,8.57
2022-11-16T23:30:23.723Z,8.40
2022-11-16T23:35:28.688Z,8.97
2022-11-16T23:40:34.986Z,8.30
2022-11-16T23:45:38.864Z,9.20
2022-11-16T23:50:44.671Z,8.30
2022-11-16T23:55:48.847Z,8.47
